FW3143 West Gilgo Beach NY US current weather conditions

sailwx.info

Wind from 217 at 16 knots gusting 20

Air temperature 22.8° C
Dewpoint 20.3° C

Last reported at 2020-Aug-05 03:45 UTC.
Time now 2020-Aug-06 09:35 UTC

Location: N 40°37' W 073°25'.
View on Google Maps.

See reports from other nearby stations

  
Tides and Currents Weather Stations Pressure Air Temp Water Temp Dewpoint Dewpoint Depression Visibility Wind Speed Wind Dir Waves Ship Positions
date/time (UTC)wind fromknots sea level pressurealtimeterstation pressurevisibilityair tempwater tempwave heightnotes
2020-Aug-05 03:45 217 16 gusting 20 22.8
2020-Aug-05 03:30 213 17 gusting 21 22.8
2020-Aug-05 03:15 219 14 gusting 19 22.2
2020-Aug-05 03:00 218 14 gusting 19 22.2
2020-Aug-05 02:45 229 14 gusting 19 22.2
2020-Aug-05 02:30 183 13 gusting 16 22.2
2020-Aug-05 02:15 223 13 gusting 17 22.2
2020-Aug-05 02:00 215 13 gusting 18 22.2
2020-Aug-05 01:45 221 12 gusting 17 22.2
2020-Aug-05 01:30 220 14 gusting 19 22.2
2020-Aug-05 01:15 216 13 gusting 18 22.2
2020-Aug-05 01:00 225 13 gusting 19 22.2
2020-Aug-05 00:45 227 13 gusting 20 22.2
2020-Aug-05 00:30 218 15 gusting 21 22.2
2020-Aug-05 00:15 215 15 gusting 21 22.2
2020-Aug-05 00:00 222 17 gusting 21 22.2
2020-Aug-04 23:47 222 18 gusting 22 22.8
2020-Aug-04 23:32 223 18 gusting 22 22.8
2020-Aug-04 23:17 225 18 gusting 24 22.8
2020-Aug-04 23:01 214 19 gusting 24 22.8
2020-Aug-04 22:47 221 18 gusting 25 22.8
2020-Aug-04 22:31 224 19 gusting 24 22.8
2020-Aug-04 22:16 215 19 gusting 26 22.8
2020-Aug-04 22:02 220 21 gusting 26 23.3
2020-Aug-04 21:46 220 24 gusting 31 23.3
2020-Aug-04 21:32 219 26 gusting 32 23.3
2020-Aug-04 21:16 210 26 gusting 37 22.8
2020-Aug-04 21:01 212 26 gusting 34 23.3
2020-Aug-04 20:47 215 25 gusting 33 23.3
2020-Aug-04 20:32 230 26 gusting 39 23.9
2020-Aug-04 20:16 236 33 gusting 45 24.4
2020-Aug-04 20:01 223 34 gusting 51 24.4
2020-Aug-04 19:46 227 38 gusting 50 23.9
2020-Aug-04 19:31 206 34 gusting 43 23.3
2020-Aug-04 19:17 204 34 gusting 48 23.3
2020-Aug-04 19:01 192 39 gusting 52 22.8
2020-Aug-04 18:31 182 43 gusting 58 23.3
2020-Aug-04 18:16 188 40 gusting 57 23.3
2020-Aug-04 18:00 190 46 gusting 59 24.4
2020-Aug-04 17:46 165 45 gusting 66 24.4
2020-Aug-04 17:30 145 41 gusting 55 25.6
2020-Aug-04 17:15 144 29 gusting 47 25.0
2020-Aug-04 16:45 159 36 gusting 49 25.0
2020-Aug-04 16:30 113 31 gusting 40 25.0
2020-Aug-04 16:15 144 25 gusting 40 25.0
2020-Aug-04 16:00 119 24 gusting 33 25.0
2020-Aug-04 15:45 117 19 gusting 27 24.4
2020-Aug-04 15:30 110 19 gusting 26 25.0
2020-Aug-04 15:15 118 19 gusting 24 25.0
2020-Aug-04 14:46 123 12 gusting 15 25.0
2020-Aug-04 14:31 107 13 gusting 15 25.0
2020-Aug-04 14:18 126 11 gusting 13 25.0
2020-Aug-04 14:01 130 12 gusting 15 25.0
2020-Aug-04 13:46 145 13 gusting 15 25.0
2020-Aug-04 13:31 165 12 gusting 15 24.4
2020-Aug-04 13:16 137 12 gusting 14 24.4
2020-Aug-04 13:01 142 12 gusting 13 24.4
2020-Aug-04 12:47 121 12 gusting 15 24.4
2020-Aug-04 12:31 130 12 gusting 14 24.4
2020-Aug-04 12:15 126 10 gusting 13 24.4
2020-Aug-04 12:01 132 8 gusting 12 24.4
2020-Aug-04 11:46 135 7 gusting 10 23.9
2020-Aug-04 11:30 143 6 gusting 10 23.9
2020-Aug-04 11:15 128 6 gusting 9 24.4
2020-Aug-04 11:00 134 7 gusting 10 24.4
2020-Aug-04 10:45 143 7 gusting 10 23.9
2020-Aug-04 10:30 121 6 gusting 10 23.9
2020-Aug-04 10:15 113 7 gusting 10 23.9
2020-Aug-04 09:47 111 8 gusting 11 23.3
2020-Aug-04 09:31 100 7 gusting 10 23.3
2020-Aug-04 09:16 103 7 gusting 10 23.3
2020-Aug-04 09:01 117 6 gusting 8 23.3